createdAt,value
2023-04-01T00:04:48.136Z,96522.16
2023-04-01T00:07:57.890Z,96518.84
2023-04-01T00:11:03.471Z,96521.84
2023-04-01T00:14:11.227Z,96514.13
2023-04-01T00:17:16.831Z,96509.84
2023-04-01T00:20:23.397Z,96501.69
2023-04-01T00:23:31.990Z,96506.34
2023-04-01T00:26:38.621Z,96515.22
2023-04-01T00:29:46.685Z,96517.09
2023-04-01T00:32:56.430Z,96479.22
2023-04-01T00:36:11.723Z,96504.97
2023-04-01T00:39:21.093Z,96509.16
2023-04-01T00:42:28.092Z,96507.47
2023-04-01T00:45:41.150Z,96510.38
2023-04-01T00:48:53.433Z,96509.16
2023-04-01T00:52:08.463Z,96510.25
2023-04-01T00:55:22.805Z,96500.31
2023-04-01T00:58:37.500Z,96509.28
2023-04-01T01:01:43.462Z,96519.91
2023-04-01T01:04:51.032Z,96514.31
2023-04-01T01:08:11.269Z,96519.13
2023-04-01T01:11:42.778Z,96519.41
2023-04-01T01:15:05.970Z,96513.44
2023-04-01T01:18:24.751Z,96514.03
2023-04-01T01:22:01.601Z,96500.50
2023-04-01T01:25:38.323Z,96511.00
2023-04-01T01:29:10.747Z,96510.06
2023-04-01T01:32:47.273Z,96502.44
2023-04-01T01:36:02.162Z,96492.66
2023-04-01T01:39:13.660Z,96483.16
2023-04-01T01:42:28.374Z,96491.97
2023-04-01T01:45:41.311Z,96497.91
2023-04-01T01:48:51.893Z,96490.84
2023-04-01T01:52:01.164Z,96477.84
2023-04-01T01:55:32.420Z,96495.25
2023-04-01T01:58:47.366Z,96486.13
2023-04-01T02:02:01.420Z,96498.53
2023-04-01T02:05:12.390Z,96504.47
2023-04-01T02:08:30.939Z,96491.88
2023-04-01T02:11:45.867Z,96503.78
2023-04-01T02:15:01.637Z,96502.38
2023-04-01T02:18:09.846Z,96499.31
2023-04-01T02:21:19.690Z,96514.25
2023-04-01T02:24:34.521Z,96507.59
2023-04-01T02:27:43.392Z,96502.66
2023-04-01T02:30:51.168Z,96507.88
2023-04-01T02:33:59.280Z,96514.06
2023-04-01T02:37:05.802Z,96511.72
2023-04-01T02:40:18.946Z,96508.41
2023-04-01T02:43:24.591Z,96522.22
2023-04-01T02:46:31.375Z,96524.06
2023-04-01T02:49:37.032Z,96527.00
2023-04-01T02:52:43.481Z,96535.03
2023-04-01T02:55:53.644Z,96513.88
2023-04-01T02:59:00.601Z,96517.66
2023-04-01T03:02:06.406Z,96534.34
2023-04-01T03:05:14.015Z,96524.72
2023-04-01T03:08:20.299Z,96531.19
2023-04-01T03:11:29.820Z,96520.72
2023-04-01T03:14:35.727Z,96522.06
2023-04-01T03:17:42.759Z,96524.81
2023-04-01T03:20:49.687Z,96518.97
2023-04-01T03:23:56.895Z,96532.66
2023-04-01T03:27:05.551Z,96524.28
2023-04-01T03:30:13.736Z,96530.94
2023-04-01T03:33:28.007Z,96520.88
2023-04-01T03:36:34.925Z,96531.06
2023-04-01T03:39:42.543Z,96534.84
2023-04-01T03:42:54.152Z,96531.53
2023-04-01T03:46:00.760Z,96528.19
2023-04-01T03:49:12.911Z,96532.06
2023-04-01T03:52:18.750Z,96526.66
2023-04-01T03:55:25.400Z,96531.19
2023-04-01T03:58:34.423Z,96519.28
2023-04-01T04:01:42.753Z,96544.13
2023-04-01T04:04:49.040Z,96532.66
2023-04-01T04:07:56.960Z,96526.72
2023-04-01T04:11:03.454Z,96531.19
2023-04-01T04:14:12.959Z,96522.91
2023-04-01T04:17:18.636Z,96530.34
2023-04-01T04:20:25.210Z,96526.22
2023-04-01T04:23:31.847Z,96527.59
2023-04-01T04:26:38.688Z,96524.53
2023-04-01T04:29:47.169Z,96517.88
2023-04-01T04:32:53.634Z,96525.59
2023-04-01T04:36:02.340Z,96523.13
2023-04-01T04:39:09.010Z,96533.63
2023-04-01T04:42:17.646Z,96531.97
2023-04-01T04:45:28.569Z,96521.22
2023-04-01T04:48:35.822Z,96530.94
2023-04-01T04:51:42.736Z,96530.94
2023-04-01T04:54:48.974Z,96531.78
2023-04-01T04:57:55.913Z,96530.81
2023-04-01T05:01:11.914Z,96538.41
2023-04-01T05:04:19.801Z,96530.13
2023-04-01T05:07:25.447Z,96536.47
2023-04-01T05:10:32.789Z,96543.13
2023-04-01T05:13:39.084Z,96535.69
2023-04-01T05:16:48.472Z,96537.91
2023-04-01T05:19:54.293Z,96542.06
2023-04-01T05:23:01.613Z,96541.44
2023-04-01T05:26:10.172Z,96548.22
2023-04-01T05:29:17.527Z,96537.72
2023-04-01T05:32:29.431Z,96551.28
2023-04-01T05:35:37.104Z,96548.22
2023-04-01T05:38:44.466Z,96539.41
2023-04-01T05:41:52.298Z,96549.59
2023-04-01T05:45:00.978Z,96539.09
2023-04-01T05:48:29.181Z,96548.34
2023-04-01T05:51:34.781Z,96543.81
2023-04-01T05:54:41.356Z,96548.22
2023-04-01T05:57:50.806Z,96563.56
2023-04-01T06:01:10.302Z,96553.91
2023-04-01T06:04:24.924Z,96535.09
2023-04-01T06:07:33.571Z,96552.94
2023-04-01T06:11:16.933Z,96558.63
2023-04-01T06:14:42.844Z,96560.94
2023-04-01T06:18:18.572Z,96562.88
2023-04-01T06:22:17.046Z,96563.44
2023-04-01T06:25:52.638Z,96569.78
2023-04-01T06:29:48.444Z,96578.13
2023-04-01T06:33:18.547Z,96567.59
2023-04-01T06:37:05.253Z,96564.53
2023-04-01T06:41:08.091Z,96572.00
2023-04-01T06:44:32.544Z,96569.22
2023-04-01T06:48:29.876Z,96575.59
2023-04-01T06:52:35.837Z,96566.47
2023-04-01T06:56:34.218Z,96573.47
2023-04-01T06:59:49.955Z,96582.41
2023-04-01T07:03:11.815Z,96583.78
2023-04-01T07:06:32.025Z,96589.06
2023-04-01T07:09:53.715Z,96580.25
2023-04-01T07:13:25.070Z,96575.81
2023-04-01T07:16:42.290Z,96573.88
2023-04-01T07:20:00.569Z,96590.78
2023-04-01T07:23:15.277Z,96589.00
2023-04-01T07:26:36.428Z,96584.84
2023-04-01T07:29:42.101Z,96585.81
2023-04-01T07:33:01.105Z,96587.69
2023-04-01T07:36:22.338Z,96582.47
2023-04-01T07:39:46.477Z,96589.53
2023-04-01T07:43:45.450Z,96588.59
2023-04-01T07:47:25.842Z,96601.88
2023-04-01T07:50:36.185Z,96604.34
2023-04-01T07:53:55.267Z,96609.91
2023-04-01T07:57:16.520Z,96610.88
2023-04-01T08:00:47.747Z,96610.31
2023-04-01T08:04:53.154Z,96605.59
2023-04-01T08:08:19.606Z,96604.34
2023-04-01T08:12:37.208Z,96612.34
2023-04-01T08:16:54.391Z,96610.41
2023-04-01T08:20:28.045Z,96605.81
2023-04-01T08:23:46.118Z,96619.22
2023-04-01T08:27:03.341Z,96612.81
2023-04-01T08:30:23.305Z,96624.16
2023-04-01T08:33:35.324Z,96608.41
2023-04-01T08:36:55.636Z,96619.50
2023-04-01T08:40:31.914Z,96622.53
2023-04-01T08:44:45.287Z,96622.41
2023-04-01T08:48:40.723Z,96635.28
2023-04-01T08:52:22.320Z,96627.22
2023-04-01T08:55:44.678Z,96610.94
2023-04-01T08:59:31.648Z,96623.38
2023-04-01T09:03:15.613Z,96617.66
2023-04-01T09:06:56.676Z,96637.47
2023-04-01T09:10:44.158Z,96621.97
2023-04-01T09:14:46.510Z,96619.34
2023-04-01T09:18:50.339Z,96626.94
2023-04-01T09:22:29.867Z,96621.00
2023-04-01T09:25:58.000Z,96613.06
2023-04-01T09:29:27.924Z,96616.19
2023-04-01T09:33:27.386Z,96611.16
2023-04-01T09:36:50.281Z,96538.50
2023-04-01T09:40:22.904Z,96634.19
2023-04-01T09:44:05.957Z,96629.09
2023-04-01T09:47:53.429Z,96621.53
2023-04-01T09:51:20.315Z,96630.94
2023-04-01T09:54:56.201Z,96624.97
2023-04-01T09:59:06.293Z,96622.91
2023-04-01T10:04:14.185Z,96640.44
2023-04-01T10:08:12.010Z,96630.47
2023-04-01T10:12:21.039Z,96622.91
2023-04-01T10:16:20.574Z,96626.06
2023-04-01T10:20:07.187Z,96627.59
2023-04-01T10:23:42.249Z,96625.94
2023-04-01T10:27:51.014Z,96629.25
2023-04-01T10:32:22.479Z,96640.88
2023-04-01T10:36:18.877Z,96634.81
2023-04-01T10:40:23.963Z,96621.09
2023-04-01T10:45:17.251Z,96637.41
2023-04-01T10:49:30.943Z,96626.38
2023-04-01T10:53:33.771Z,96643.06
2023-04-01T10:57:06.864Z,96641.69
2023-04-01T11:01:18.520Z,96644.16
2023-04-01T11:06:15.870Z,96652.53
2023-04-01T11:10:34.965Z,96635.13
2023-04-01T11:14:25.849Z,96647.75
2023-04-01T11:18:39.329Z,96636.75
2023-04-01T11:22:14.970Z,96625.88
2023-04-01T11:26:19.535Z,96640.72
2023-04-01T11:30:54.949Z,96625.50
2023-04-01T11:34:25.362Z,96635.97
2023-04-01T11:37:55.876Z,96634.50
2023-04-01T11:41:44.982Z,96630.81
2023-04-01T11:45:29.995Z,96629.59
2023-04-01T11:49:02.910Z,96630.06
2023-04-01T11:52:32.843Z,96631.13
2023-04-01T11:56:03.878Z,96630.53
2023-04-01T12:00:04.059Z,96632.03
2023-04-01T12:04:04.770Z,96624.09
2023-04-01T12:07:28.174Z,96628.31
2023-04-01T12:10:53.988Z,96637.78
2023-04-01T12:14:15.686Z,96634.84
2023-04-01T12:17:41.569Z,96642.22
2023-04-01T12:20:59.032Z,96651.34
2023-04-01T12:24:57.190Z,96648.03
2023-04-01T12:28:24.958Z,96653.59
2023-04-01T12:31:50.658Z,96649.56
2023-04-01T12:35:23.544Z,96644.16
2023-04-01T12:38:51.945Z,96641.09
2023-04-01T12:42:17.662Z,96651.09
2023-04-01T12:45:35.591Z,96657.44
2023-04-01T12:49:35.517Z,96647.06
2023-04-01T12:53:07.089Z,96665.31
2023-04-01T12:56:41.058Z,96652.69
2023-04-01T13:00:20.492Z,96652.06
2023-04-01T13:04:10.185Z,96648.59
2023-04-01T13:08:00.157Z,96658.69
2023-04-01T13:11:22.697Z,96669.09
2023-04-01T13:15:07.534Z,96667.50
2023-04-01T13:18:36.804Z,96672.41
2023-04-01T13:22:01.521Z,96666.59
2023-04-01T13:25:23.410Z,96662.63
2023-04-01T13:28:41.412Z,96661.78
2023-04-01T13:32:10.432Z,96673.16
2023-04-01T13:35:41.313Z,96676.47
2023-04-01T13:39:20.898Z,96675.81
2023-04-01T13:42:39.316Z,96670.75
2023-04-01T13:46:20.565Z,96689.28
2023-04-01T13:50:11.980Z,96687.41
2023-04-01T13:53:59.941Z,96690.66
2023-04-01T13:57:32.058Z,96698.91
2023-04-01T14:01:07.557Z,96677.25
2023-04-01T14:04:48.495Z,96702.31
2023-04-01T14:08:12.609Z,96712.16
2023-04-01T14:11:39.475Z,96704.53
2023-04-01T14:15:22.965Z,96687.34
2023-04-01T14:19:16.251Z,96713.78
2023-04-01T14:22:42.915Z,96705.38
2023-04-01T14:26:35.688Z,96707.56
2023-04-01T14:30:04.639Z,96706.47
2023-04-01T14:33:35.726Z,96710.19
2023-04-01T14:37:16.399Z,96716.41
2023-04-01T14:40:38.709Z,96731.59
2023-04-01T14:44:34.105Z,96742.16
2023-04-01T14:47:56.281Z,96731.66
2023-04-01T14:51:14.846Z,96737.34
2023-04-01T14:54:36.377Z,96723.94
2023-04-01T14:57:42.264Z,96725.28
2023-04-01T15:01:15.211Z,96729.19
2023-04-01T15:04:58.795Z,96730.28
2023-04-01T15:08:21.277Z,96734.53
2023-04-01T15:11:50.770Z,96736.22
2023-04-01T15:15:29.173Z,96738.44
2023-04-01T15:18:59.817Z,96735.50
2023-04-01T15:22:48.467Z,96754.28
2023-04-01T15:26:24.627Z,96749.69
2023-04-01T15:30:06.159Z,96744.00
2023-04-01T15:33:57.039Z,96752.56
2023-04-01T15:37:21.103Z,96743.38
2023-04-01T15:40:35.381Z,96762.72
2023-04-01T15:43:50.141Z,96758.66
2023-04-01T15:46:56.809Z,96764.44
2023-04-01T15:50:48.673Z,96754.06
2023-04-01T15:54:46.003Z,96768.47
2023-04-01T15:58:35.927Z,96775.94
2023-04-01T16:02:00.429Z,96776.19
2023-04-01T16:05:41.746Z,96787.50
2023-04-01T16:09:12.591Z,96773.56
2023-04-01T16:12:29.808Z,96786.94
2023-04-01T16:15:55.066Z,96794.50
2023-04-01T16:19:30.686Z,96801.56
2023-04-01T16:22:49.732Z,96785.25
2023-04-01T16:26:10.841Z,96784.81
2023-04-01T16:29:37.071Z,96792.59
2023-04-01T16:32:58.826Z,96792.09
2023-04-01T16:36:18.078Z,96789.16
2023-04-01T16:39:42.398Z,96787.94
2023-04-01T16:42:57.054Z,96805.09
2023-04-01T16:46:36.899Z,96814.88
2023-04-01T16:49:56.152Z,96821.81
2023-04-01T16:53:13.882Z,96832.06
2023-04-01T16:56:28.563Z,96824.41
2023-04-01T16:59:42.082Z,96844.91
2023-04-01T17:03:03.011Z,96845.19
2023-04-01T17:06:31.814Z,96841.59
2023-04-01T17:10:09.785Z,96861.00
2023-04-01T17:13:40.131Z,96845.81
2023-04-01T17:17:26.066Z,96862.97
2023-04-01T17:20:54.370Z,96871.94
2023-04-01T17:24:33.535Z,96877.19
2023-04-01T17:27:55.627Z,96889.72
2023-04-01T17:31:23.039Z,96886.97
2023-04-01T17:35:01.089Z,96892.47
2023-04-01T17:38:28.245Z,96889.47
2023-04-01T17:41:51.570Z,96899.91
2023-04-01T17:45:14.967Z,96905.22
2023-04-01T17:48:45.182Z,96906.84
2023-04-01T17:52:11.646Z,96909.63
2023-04-01T17:55:55.469Z,96915.28
2023-04-01T17:59:20.542Z,96918.28
2023-04-01T18:02:46.145Z,96915.66
2023-04-01T18:06:18.111Z,96925.91
2023-04-01T18:09:47.322Z,96930.63
2023-04-01T18:13:35.445Z,96937.16
2023-04-01T18:17:17.243Z,96936.81
2023-04-01T18:20:44.064Z,96937.13
2023-04-01T18:24:02.995Z,96949.34
2023-04-01T18:27:20.638Z,96954.09
2023-04-01T18:30:37.154Z,96950.50
2023-04-01T18:33:59.436Z,96954.91
2023-04-01T18:37:23.659Z,96971.25
2023-04-01T18:40:39.746Z,96962.13
2023-04-01T18:44:08.003Z,96963.81
2023-04-01T18:47:34.521Z,96966.25
2023-04-01T18:50:52.008Z,96977.09
2023-04-01T18:54:06.900Z,96975.56
2023-04-01T18:57:20.365Z,96975.09
2023-04-01T19:00:36.967Z,96980.06
2023-04-01T19:03:59.896Z,96955.88
2023-04-01T19:07:44.929Z,96979.72
2023-04-01T19:11:11.991Z,96991.03
2023-04-01T19:14:34.856Z,96987.16
2023-04-01T19:18:02.756Z,96995.19
2023-04-01T19:21:20.893Z,96996.38
2023-04-01T19:24:56.815Z,96992.22
2023-04-01T19:28:21.977Z,96989.69
2023-04-01T19:31:57.024Z,97003.59
2023-04-01T19:35:24.758Z,97009.41
2023-04-01T19:38:42.511Z,97003.34
2023-04-01T19:42:03.693Z,97010.16
2023-04-01T19:45:34.628Z,97009.13
2023-04-01T19:49:08.623Z,97017.94
2023-04-01T19:52:27.165Z,97019.31
2023-04-01T19:55:48.810Z,97025.97
2023-04-01T19:59:08.726Z,96997.66
2023-04-01T20:02:48.336Z,97042.31
2023-04-01T20:06:15.763Z,97038.41
2023-04-01T20:10:02.205Z,97038.88
2023-04-01T20:13:25.201Z,97045.81
2023-04-01T20:16:56.776Z,97042.81
2023-04-01T20:20:19.609Z,97050.28
2023-04-01T20:23:47.828Z,97050.66
2023-04-01T20:27:11.375Z,97039.75
2023-04-01T20:31:17.245Z,97054.03
2023-04-01T20:35:12.764Z,97051.28
2023-04-01T20:39:32.075Z,97057.09
2023-04-01T20:43:04.118Z,97053.47
2023-04-01T20:46:24.205Z,97053.13
2023-04-01T20:50:00.561Z,97052.88
2023-04-01T20:53:19.826Z,97067.69
2023-04-01T20:56:52.605Z,97065.56
2023-04-01T21:00:34.028Z,97065.81
2023-04-01T21:03:59.073Z,97075.22
2023-04-01T21:07:31.133Z,97076.31
2023-04-01T21:10:54.611Z,97082.06
2023-04-01T21:14:38.155Z,97086.16
2023-04-01T21:18:08.750Z,97083.56
2023-04-01T21:21:53.350Z,97084.09
2023-04-01T21:25:31.569Z,97100.06
2023-04-01T21:29:14.178Z,97087.22
2023-04-01T21:32:41.916Z,97098.63
2023-04-01T21:36:05.175Z,97096.75
2023-04-01T21:39:46.046Z,97103.53
2023-04-01T21:43:10.369Z,97102.47
2023-04-01T21:47:03.131Z,97105.09
2023-04-01T21:50:59.832Z,97101.25
2023-04-01T21:54:41.710Z,97107.94
2023-04-01T21:59:00.531Z,97104.31
2023-04-01T22:02:56.397Z,97109.34
2023-04-01T22:06:26.781Z,97111.59
2023-04-01T22:09:44.367Z,97113.13
2023-04-01T22:13:02.135Z,97116.00
2023-04-01T22:16:27.072Z,97108.50
2023-04-01T22:19:52.222Z,97114.34
2023-04-01T22:23:30.514Z,97116.28
2023-04-01T22:26:48.175Z,97128.41
2023-04-01T22:30:14.155Z,97126.78
2023-04-01T22:33:36.456Z,97129.13
2023-04-01T22:37:03.729Z,97116.00
2023-04-01T22:40:32.240Z,97113.38
2023-04-01T22:43:45.719Z,97130.19
2023-04-01T22:47:09.770Z,97124.38
2023-04-01T22:50:26.018Z,97127.22
2023-04-01T22:53:58.500Z,97129.63
2023-04-01T22:57:12.848Z,97148.81
2023-04-01T23:00:28.754Z,97149.19
2023-04-01T23:03:41.683Z,97148.25
2023-04-01T23:06:56.765Z,97153.75
2023-04-01T23:10:18.571Z,97143.00
2023-04-01T23:13:35.516Z,97150.03
2023-04-01T23:16:54.724Z,97154.47
2023-04-01T23:20:19.500Z,97153.28
2023-04-01T23:23:43.773Z,97143.72
2023-04-01T23:27:04.424Z,97153.84
2023-04-01T23:30:54.574Z,97146.81
2023-04-01T23:34:04.445Z,97149.09
2023-04-01T23:37:17.507Z,97165.22
2023-04-01T23:40:23.390Z,97172.59
2023-04-01T23:43:40.387Z,97167.59
2023-04-01T23:46:51.959Z,97176.19
2023-04-01T23:50:05.246Z,97172.28
2023-04-01T23:53:29.675Z,97170.72
2023-04-01T23:56:47.765Z,97174.16
